AirNav   Pilot Hours Calculator
 
 989 users online  

6PN8 Posh Heliport
Bethlehem, Pennsylvania, USA

GOING TO BETHLEHEM?


FAA INFORMATION EFFECTIVE 07 NOVEMBER 2019

Location

FAA Identifier: 6PN8
Lat/Long: 40-38-45.3540N 075-19-58.6450W
40-38.755900N 075-19.977417W
40.6459317,-75.3329569
(estimated)
Elevation: 320 ft. / 98 m (estimated)
Variation: 12W (1985)
From city: 2 miles NE of BETHLEHEM, PA
Time zone: UTC -5 (UTC -4 during Daylight Saving Time)
Zip code: 18020

Heliport Operations

Heliport use: Private use. Permission required prior to landing
Activation date: 12/1977
Control tower: no
ARTCC: NEW YORK CENTER
FSS: WILLIAMSPORT FLIGHT SERVICE STATION
Attendance: UNATNDD
Wind indicator: yes
Segmented circle: yes

Heliport Communications

WX ASOS at ABE (5 nm W): PHONE 610-266-3579
WX AWOS-3 at XLL (8 nm SW): 127.875 (610-231-3111)
WX AWOS-3 at UKT (13 nm S): 119.475 (215-538-7610)
WX AWOS-3 at CKZ (16 nm S): 126.325 (215-257-7291)

Nearby radio navigation aids

VOR radial/distance  VOR name  Freq  Var
FJCr141/7.4ALLENTOWN VORTAC117.5010W
ETXr085/16.5EAST TEXAS VOR/DME110.2009W
BWZr260/25.0BROADWAY VOR/DME114.2011W
SBJr288/27.2SOLBERG VOR/DME112.9010W
PTWr031/27.5POTTSTOWN VORTAC116.5009W
STWr236/29.7STILLWATER VOR/DME109.6011W
ARDr330/30.5YARDLEY VOR/DME108.2010W

 
NDB name  Hdg/Dist  Freq  Var  ID
AMBLER008/31.327512WING .. -. --.

Heliport Services

Runway Information

Helipad H1

Dimensions: 200 x 200 ft. / 61 x 61 m
Surface: turf, in fair condition
Latitude: 40-38.755900N
Longitude: 075-19.977417W
Elevation: 320.0 ft.
Traffic pattern: leftleft
Markings: none, in fair condition

Heliport Ownership and Management from official FAA records

Ownership: Privately-owned
Owner: J T POSH
2216 WILLOW PARK RD
BETHLEHEM, PA 18017
Manager: J T POSH
2216 WILLOW PARK RD
BETHLEHEM, PA 18017
Phone (610) 954-9791

Additional Remarks

FOR CD CTC ALLENTOWN APCH AT 800-728-6322.

Instrument Procedures

There are no published instrument procedures at 6PN8.

Some nearby airports with instrument procedures:

KABE - Lehigh Valley International Airport (5 nm W)
N43 - Braden Airpark (7 nm NE)
KXLL - Allentown Queen City Municipal Airport (8 nm SW)
KUKT - Quakertown Airport (13 nm S)
N85 - Alexandria Airport (15 nm E)
KCKZ - Pennridge Airport (16 nm S)
N40 - Sky Manor Airport (17 nm E)
 
Loc | Ops | Rwys | IFR | FBO | Links
Com | Nav | Svcs | Stats | Notes
Area around 6PN8 (Posh Heliport)
 
Road maps at: MapQuest Bing Google
 
Aerial photo
No photo
 
Sectional chart

 
Airport distance calculator
Flying to Posh Heliport? Find the distance to fly.

From to 6PN8

Sunrise and sunset
Times for 19-Nov-2019
 Local
(UTC-5)
 Zulu
(UTC)
Morning civil twilight06:2411:24
Sunrise06:5411:54
Sunset16:4021:40
Evening civil twilight17:0922:09

Current date and time
Zulu (UTC)  20-Nov-2019 01:45:49
Local (UTC-5)  19-Nov-2019 20:45:49
 
METAR
KABE 
5nm W 
200051Z 00000KT 10SM CLR 06/00 A2987 RMK AO2 SLP116 T00560000
KXLL 
8nm SW 
200135Z AUTO 00000KT 10SM CLR 04/01 A2988 RMK AO2
KUKT 
13nm S 
200135Z AUTO 00000KT 10SM CLR 03/00 A2987 RMK A01
KCKZ 
16nm S 
200135Z AUTO 00000KT 10SM FEW043 03/00 A2988 RMK AO2
TAF
KABE 
5nm W 
191904Z 1919/2018 29005KT P6SM BKN030 FM192000 29005KT P6SM FEW025 SCT250 FM192300 VRB03KT P6SM BKN150 FM200900 32007KT P6SM OVC060 FM201600 32012G20KT P6SM BKN050
NOTAMs
Click for the latest NOTAMs
NOTAMs are issued by the DoD/FAA and will open in a separate window not controlled by AirNav.

 

 
 

Would you like to see your business listed on this page?

 If your business provides an interesting product or service to pilots, flight crews, aircraft, or users of the Posh Heliport, you should consider listing it here.  To start the listing process, click on the button below
 
Add a business
 

Other Pages about Posh Heliport

Update a link
 
Copyright © AirNav, LLC. All rights reserved. Privacy Policy  Contact